Kinmount, Canada
Current Conditions -  °F | °C
As of 10:29 PM on Saturday 24 Jan 2015 (Local Time) from CYQA Reporting Station
Light Snow Light Snow  
Wind Chill: -14°   Ceiling: 1300
Heat Index: -6°   Visibility: 9mi
Dew Point: -7°   Wind: 20mph
Humidity: 93%   Direction: 320°NW
Pressure: 29.46"   Gusts: NA
Location:  44.78°N, 78.65°W
Report Text: CYQA 250329Z AUTO 32017KT 300V020 9SM -SN OVC013 M06/M07 A2946 RMK SLP990
Loading
Personal Weather Stations






























Interactive Weather Map New forecast layout! Learn more

10-Day Weather Forecast

Advertisements
Track Severe Weather on mobile